17AK weather

Ketchikan /Temsco H/ Heliport
Ketchikan, Alaska, United States

Public forecast

Using degrees Fahrenheit for public forecast. Weather courtesy of forecast.io.

Closest aviation weather report (METAR) to Ketchikan /Temsco H/ Heliport

Closest report is Ketchikan International Airport, 1.8 nm (3.3 km) SSE. Retrieved 2019/11/15 20:53 UTC (1 hour ago):

PAKT 152053Z COR 13005KT 10SM BR SCT020 BKN030 OVC040 09/08 A2974

Closest aviation forecast (TAF) to Ketchikan /Temsco H/ Heliport

Closest forecast is Ketchikan International Airport, 1.8 nm (3.3 km) SSE. Retrieved 2019/11/15 18:33 UTC (3 hours ago):

TAF PAKT 151731Z 1518/1618 15011KT P6SM -SHRA SCT007 BKN014 OVC025 TEMPO 1518/1522 4SM +SHRA BR SCT007 BKN010 OVC020 FM160700 14011KT P6SM -SHRA SCT025 OVC040 FM161000 14015G25KT 5SM -SHRA BKN040 OVC060 WS020/16045KT FM161500 14025G35KT 4SM -SHRA BR OVC015 WS020/14060KT AMD LTD TO CLD VIS AND WIND 1606/1615